createdAt,value
2017-12-22T04:31:07.997Z,4.90
2017-12-22T04:33:36.336Z,4.90
2017-12-22T04:36:03.912Z,4.90
2017-12-22T04:38:31.532Z,4.90
2017-12-22T04:40:59.113Z,4.90
2017-12-22T04:43:26.693Z,4.80
2017-12-22T04:45:54.322Z,4.80
2017-12-22T04:48:21.901Z,4.80
2017-12-22T04:50:49.486Z,4.80
2017-12-22T04:53:17.854Z,4.80
2017-12-22T04:55:45.481Z,4.80
2017-12-22T04:58:13.053Z,4.90
2017-12-22T05:00:40.626Z,5.00
2017-12-22T05:03:09.753Z,5.00
2017-12-22T05:05:37.329Z,4.90
2017-12-22T05:08:04.906Z,4.90
2017-12-22T05:10:32.507Z,4.90
2017-12-22T05:13:00.845Z,4.90
2017-12-22T05:15:28.478Z,4.90
2017-12-22T05:17:56.062Z,4.80
2017-12-22T05:20:23.633Z,4.90
2017-12-22T05:22:51.266Z,4.90
2017-12-22T05:25:18.846Z,4.90
2017-12-22T05:27:46.426Z,4.90
2017-12-22T05:30:14.021Z,4.80
2017-12-22T05:32:41.710Z,4.90
2017-12-22T05:35:09.304Z,4.90
2017-12-22T05:37:36.877Z,4.90
2017-12-22T05:40:05.217Z,4.90
2017-12-22T05:42:32.829Z,4.90
2017-12-22T05:45:01.174Z,5.00
2017-12-22T05:47:28.753Z,4.90
2017-12-22T05:49:57.125Z,4.80
2017-12-22T05:52:25.470Z,4.80
2017-12-22T05:54:53.045Z,4.80
2017-12-22T05:57:20.670Z,4.80
2017-12-22T05:59:48.253Z,4.80
2017-12-22T06:02:16.629Z,4.80
2017-12-22T06:04:44.258Z,4.80
2017-12-22T06:07:11.845Z,4.80
2017-12-22T06:09:39.432Z,4.80
2017-12-22T06:12:07.801Z,4.70
2017-12-22T06:14:35.429Z,4.70
2017-12-22T06:17:03.006Z,4.80
2017-12-22T06:19:30.586Z,4.70
2017-12-22T06:21:58.970Z,4.80
2017-12-22T06:24:27.313Z,4.80
2017-12-22T06:26:54.894Z,4.80
2017-12-22T06:29:22.514Z,4.80
2017-12-22T06:31:50.101Z,4.80
2017-12-22T06:34:17.712Z,4.90
2017-12-22T06:36:45.293Z,4.80
2017-12-22T06:39:12.877Z,4.80
2017-12-22T06:41:40.510Z,4.80
2017-12-22T06:44:08.114Z,4.80
2017-12-22T06:46:36.453Z,4.80
2017-12-22T06:49:04.064Z,4.80
2017-12-22T06:51:32.406Z,4.80
2017-12-22T06:54:00.061Z,4.80
2017-12-22T06:56:27.799Z,4.80
2017-12-22T06:58:55.377Z,4.90
2017-12-22T07:01:22.961Z,4.90
2017-12-22T07:03:50.618Z,4.90
2017-12-22T07:06:18.197Z,4.90
2017-12-22T07:08:46.542Z,5.00
2017-12-22T07:11:14.157Z,5.00
2017-12-22T07:13:41.737Z,4.90
2017-12-22T07:16:09.313Z,5.00
2017-12-22T07:18:36.925Z,4.90
2017-12-22T07:21:04.506Z,4.90
2017-12-22T07:23:32.089Z,4.90
2017-12-22T07:25:59.702Z,4.90
2017-12-22T07:28:27.285Z,4.90
2017-12-22T07:30:54.866Z,4.90
2017-12-22T07:33:22.477Z,5.00
2017-12-22T07:35:50.050Z,5.00
2017-12-22T07:38:17.641Z,5.00
2017-12-22T07:40:45.246Z,5.00
2017-12-22T07:43:12.826Z,5.10
2017-12-22T07:45:40.405Z,5.10
2017-12-22T07:48:08.017Z,5.10
2017-12-22T07:50:36.358Z,5.20
2017-12-22T07:53:03.986Z,5.20
2017-12-22T07:55:31.566Z,5.20
2017-12-22T07:57:59.147Z,5.20
2017-12-22T08:00:26.745Z,5.20
2017-12-22T08:02:54.326Z,5.20
2017-12-22T08:05:21.905Z,5.20
2017-12-22T08:07:49.518Z,5.30
2017-12-22T08:10:17.097Z,5.30
2017-12-22T08:12:44.781Z,5.30
2017-12-22T08:15:12.423Z,5.30
2017-12-22T08:17:40.007Z,5.30
2017-12-22T08:20:07.614Z,5.40
2017-12-22T08:22:35.189Z,5.40
2017-12-22T08:25:02.794Z,5.40
2017-12-22T08:27:31.189Z,5.40
2017-12-22T08:29:59.533Z,5.50
2017-12-22T08:32:27.114Z,5.40
2017-12-22T08:34:54.737Z,5.50
2017-12-22T08:37:22.313Z,5.50
2017-12-22T08:39:49.903Z,5.60
2017-12-22T08:42:18.268Z,5.60
2017-12-22T08:44:45.855Z,5.60
2017-12-22T08:47:13.469Z,5.60
2017-12-22T08:49:41.053Z,5.60
2017-12-22T08:52:09.402Z,5.70
2017-12-22T08:54:37.006Z,5.70
2017-12-22T08:57:04.586Z,5.70
2017-12-22T08:59:32.163Z,5.80
2017-12-22T09:01:59.790Z,5.80
2017-12-22T09:04:27.370Z,5.80
2017-12-22T09:06:54.945Z,5.70
2017-12-22T09:09:22.563Z,5.80
2017-12-22T09:11:50.143Z,5.80
2017-12-22T09:14:17.722Z,5.80
2017-12-22T09:16:45.333Z,5.80
2017-12-22T09:19:12.910Z,5.80
2017-12-22T09:21:40.494Z,5.80
2017-12-22T09:24:08.134Z,5.80
2017-12-22T09:26:35.709Z,5.80
2017-12-22T09:29:03.286Z,5.80
2017-12-22T09:31:30.930Z,5.80
2017-12-22T09:33:58.513Z,5.80
2017-12-22T09:36:26.094Z,5.80
2017-12-22T09:38:54.462Z,6.00
2017-12-22T09:41:22.857Z,6.00
2017-12-22T09:43:51.246Z,6.00
2017-12-22T09:46:18.862Z,6.00
2017-12-22T09:48:46.491Z,5.90
2017-12-22T09:51:14.069Z,5.90
2017-12-22T09:53:41.651Z,5.90
2017-12-22T09:56:10.238Z,5.90
2017-12-22T09:58:38.577Z,6.00
2017-12-22T10:01:06.158Z,5.90
2017-12-22T10:03:33.778Z,6.00
2017-12-22T10:06:01.361Z,6.00
2017-12-22T10:08:28.933Z,6.10
2017-12-22T10:10:56.546Z,6.10
2017-12-22T10:13:24.121Z,6.20
2017-12-22T10:15:51.705Z,6.20
2017-12-22T10:18:19.324Z,6.30
2017-12-22T10:20:46.910Z,6.40
2017-12-22T10:23:14.516Z,6.40
2017-12-22T10:25:42.906Z,6.50
2017-12-22T10:28:10.490Z,6.50
2017-12-22T10:30:38.065Z,6.40
2017-12-22T10:33:05.665Z,6.40
2017-12-22T10:35:34.037Z,6.50
2017-12-22T10:38:02.382Z,6.50
2017-12-22T10:40:29.961Z,6.50
2017-12-22T10:42:57.577Z,6.60
2017-12-22T10:45:25.158Z,6.60
2017-12-22T10:47:52.737Z,6.60
2017-12-22T10:50:20.342Z,6.60
2017-12-22T10:52:47.925Z,6.50
2017-12-22T10:55:15.541Z,6.50
2017-12-22T10:57:43.126Z,6.40
2017-12-22T11:00:10.714Z,6.40
2017-12-22T11:02:38.317Z,6.40
2017-12-22T11:05:05.898Z,6.40
2017-12-22T11:07:33.533Z,6.50
2017-12-22T11:10:01.878Z,6.50
2017-12-22T11:12:29.456Z,6.50
2017-12-22T11:14:57.850Z,6.50
2017-12-22T11:17:25.429Z,6.50
2017-12-22T11:19:53.001Z,6.60
2017-12-22T11:22:20.667Z,6.70
2017-12-22T11:24:48.246Z,6.60
2017-12-22T11:27:15.829Z,6.60
2017-12-22T11:29:44.205Z,6.50
2017-12-22T11:32:12.549Z,6.50
2017-12-22T11:34:40.129Z,6.50
2017-12-22T11:37:08.491Z,6.40
2017-12-22T11:39:36.132Z,6.40
2017-12-22T11:42:03.942Z,6.40
2017-12-22T11:44:32.282Z,6.40
2017-12-22T11:46:59.989Z,6.40
2017-12-22T11:49:27.569Z,6.40
2017-12-22T11:51:55.180Z,6.40
2017-12-22T11:54:22.761Z,6.30
2017-12-22T11:56:51.106Z,6.30
2017-12-22T11:59:19.474Z,6.30
2017-12-22T12:01:47.051Z,6.30
2017-12-22T12:04:14.634Z,6.30
2017-12-22T12:06:43.006Z,6.30
2017-12-22T12:09:11.354Z,6.20
2017-12-22T12:11:38.933Z,6.20
2017-12-22T12:14:07.318Z,6.20
2017-12-22T12:16:35.662Z,6.20
2017-12-22T12:19:03.251Z,6.20
2017-12-22T12:21:31.621Z,6.20
2017-12-22T12:23:59.198Z,6.20
2017-12-22T12:26:27.545Z,6.20
2017-12-22T12:28:55.142Z,6.20
2017-12-22T12:31:22.751Z,6.20
2017-12-22T12:33:50.365Z,6.20
2017-12-22T12:36:17.941Z,6.30
2017-12-22T12:38:45.521Z,6.30
2017-12-22T12:41:13.157Z,6.30
2017-12-22T12:43:40.734Z,6.30
2017-12-22T12:46:08.317Z,6.20
2017-12-22T12:48:36.104Z,6.30
2017-12-22T12:51:04.454Z,6.20
2017-12-22T12:53:32.037Z,6.20
2017-12-22T12:56:00.422Z,6.10
2017-12-22T12:58:28.773Z,6.10
2017-12-22T13:00:56.358Z,6.10
2017-12-22T13:03:24.730Z,6.10
2017-12-22T13:05:53.069Z,6.10
2017-12-22T13:08:20.647Z,6.10
2017-12-22T13:10:48.255Z,6.10
2017-12-22T13:13:15.837Z,6.00
2017-12-22T13:15:43.457Z,6.00
2017-12-22T13:18:11.032Z,6.00
2017-12-22T13:20:38.605Z,6.00
2017-12-22T13:23:06.209Z,6.00
2017-12-22T13:25:34.558Z,6.00
2017-12-22T13:28:02.142Z,5.90
2017-12-22T13:30:30.540Z,5.90
2017-12-22T13:32:58.901Z,6.00
2017-12-22T13:35:27.249Z,6.00
2017-12-22T13:37:54.864Z,6.00
2017-12-22T13:40:22.446Z,5.90
2017-12-22T13:42:50.953Z,6.00
2017-12-22T13:45:18.538Z,5.90
2017-12-22T13:47:46.882Z,5.90
2017-12-22T13:50:14.513Z,5.90
2017-12-22T13:52:42.098Z,5.90
2017-12-22T13:55:09.681Z,5.90
2017-12-22T13:57:37.316Z,5.90
2017-12-22T14:00:04.896Z,5.90
2017-12-22T14:02:32.477Z,5.90
2017-12-22T14:05:00.887Z,5.80
2017-12-22T14:07:28.471Z,5.80
2017-12-22T14:09:56.091Z,5.70
2017-12-22T14:12:23.689Z,5.70
2017-12-22T14:14:51.264Z,5.60
2017-12-22T14:17:19.046Z,5.60
2017-12-22T14:19:47.473Z,5.60
2017-12-22T14:22:15.049Z,5.60
2017-12-22T14:24:42.658Z,5.50
2017-12-22T14:27:10.242Z,5.50
2017-12-22T14:29:37.822Z,5.50
2017-12-22T14:32:05.453Z,5.40
2017-12-22T14:34:33.029Z,5.40
2017-12-22T14:37:00.609Z,5.40
2017-12-22T14:39:28.234Z,5.40
2017-12-22T14:41:55.822Z,5.30
2017-12-22T14:44:23.497Z,5.40
2017-12-22T14:46:51.101Z,5.40
2017-12-22T14:49:18.725Z,5.40
2017-12-22T14:51:46.305Z,5.40
2017-12-22T14:54:14.654Z,5.20
2017-12-22T14:56:42.282Z,5.20
2017-12-22T14:59:09.911Z,5.10
2017-12-22T15:01:38.229Z,5.00
2017-12-22T15:04:06.809Z,5.10
2017-12-22T15:06:34.389Z,5.00
2017-12-22T15:09:02.833Z,5.10
2017-12-22T15:11:30.434Z,5.00
2017-12-22T15:13:58.037Z,5.00
2017-12-22T15:16:25.617Z,4.90
2017-12-22T15:18:53.202Z,4.90
2017-12-22T15:21:20.807Z,4.90
2017-12-22T15:23:48.450Z,4.80
2017-12-22T15:26:16.794Z,4.90
2017-12-22T15:28:44.373Z,4.90
2017-12-22T15:31:12.747Z,4.80
2017-12-22T15:33:41.123Z,4.80
2017-12-22T15:36:09.474Z,4.80
2017-12-22T15:38:37.077Z,4.80
2017-12-22T15:41:04.658Z,4.90
2017-12-22T15:43:32.240Z,4.80
2017-12-22T15:45:59.854Z,4.80
2017-12-22T15:48:28.198Z,4.80
2017-12-22T15:50:55.781Z,4.80
2017-12-22T15:53:24.182Z,4.70
2017-12-22T15:55:51.768Z,4.70
2017-12-22T15:58:19.350Z,4.70
2017-12-22T16:00:46.969Z,4.80
2017-12-22T16:03:14.550Z,4.80
2017-12-22T16:05:42.138Z,4.70
2017-12-22T16:08:10.525Z,4.70
2017-12-22T16:10:38.867Z,4.70
2017-12-22T16:13:06.445Z,4.70
2017-12-22T16:15:34.178Z,4.70
2017-12-22T16:18:01.762Z,4.70
2017-12-22T16:20:29.341Z,4.80
2017-12-22T16:22:56.969Z,4.80
2017-12-22T16:25:24.554Z,4.70
2017-12-22T16:27:52.897Z,4.70
2017-12-22T16:30:20.530Z,4.70
2017-12-22T16:32:48.107Z,4.70
2017-12-22T16:35:15.697Z,4.70
2017-12-22T16:37:44.067Z,4.70
2017-12-22T16:40:11.641Z,4.70
2017-12-22T16:42:40.037Z,4.60
2017-12-22T16:45:08.382Z,4.60
2017-12-22T16:47:35.971Z,4.60
2017-12-22T16:50:04.528Z,4.60
2017-12-22T16:52:32.886Z,4.70
2017-12-22T16:55:00.466Z,4.60
2017-12-22T16:57:28.238Z,4.60
2017-12-22T16:59:56.577Z,4.60
2017-12-22T17:02:24.161Z,4.50
2017-12-22T17:04:51.834Z,4.60
2017-12-22T17:07:20.902Z,4.60
2017-12-22T17:09:48.480Z,4.60
2017-12-22T17:12:16.110Z,4.60
2017-12-22T17:14:43.694Z,4.50
2017-12-22T17:17:11.315Z,4.50
2017-12-22T17:19:38.922Z,4.50
2017-12-22T17:22:07.278Z,4.50
2017-12-22T17:24:34.853Z,4.50
2017-12-22T17:27:03.249Z,4.50
2017-12-22T17:29:31.593Z,4.50
2017-12-22T17:31:59.175Z,4.50
2017-12-22T17:34:27.545Z,4.50
2017-12-22T17:36:55.901Z,4.50
2017-12-22T17:39:23.542Z,4.50
2017-12-22T17:41:51.118Z,4.40
2017-12-22T17:44:18.693Z,4.40
2017-12-22T17:46:46.299Z,4.40
2017-12-22T17:49:13.877Z,4.40
2017-12-22T17:51:41.458Z,4.40
2017-12-22T17:54:09.062Z,4.40
2017-12-22T17:56:36.645Z,4.40
2017-12-22T17:59:04.410Z,4.40
2017-12-22T18:01:32.017Z,4.50
2017-12-22T18:04:00.369Z,4.40
2017-12-22T18:06:27.946Z,4.50
2017-12-22T18:08:55.553Z,4.40
2017-12-22T18:11:23.186Z,4.40
2017-12-22T18:13:51.529Z,4.40
2017-12-22T18:16:19.113Z,4.40
2017-12-22T18:18:47.497Z,4.40
2017-12-22T18:21:17.641Z,4.40
2017-12-22T18:23:45.222Z,4.40
2017-12-22T18:26:12.837Z,4.40
2017-12-22T18:28:40.413Z,4.40
2017-12-22T18:31:07.998Z,4.40
2017-12-22T18:33:35.603Z,4.50
2017-12-22T18:36:03.951Z,4.40
2017-12-22T18:38:31.590Z,4.40
2017-12-22T18:40:59.165Z,4.40
2017-12-22T18:43:26.746Z,4.40
2017-12-22T18:45:54.372Z,4.40
2017-12-22T18:48:21.951Z,4.40
2017-12-22T18:50:49.538Z,4.50
2017-12-22T18:53:17.905Z,4.50
2017-12-22T18:55:46.249Z,4.50
2017-12-22T18:58:13.830Z,4.50
2017-12-22T19:00:41.491Z,4.50
2017-12-22T19:03:15.076Z,4.60
2017-12-22T19:05:42.681Z,4.50
2017-12-22T19:08:10.253Z,4.60
2017-12-22T19:10:37.855Z,4.50
2017-12-22T19:13:05.494Z,4.50
2017-12-22T19:15:33.083Z,4.50
2017-12-22T19:18:00.661Z,4.60
2017-12-22T19:20:29.057Z,4.50
2017-12-22T19:22:56.634Z,4.50
2017-12-22T19:25:24.212Z,4.50
2017-12-22T19:27:51.808Z,4.50
2017-12-22T19:30:20.170Z,4.50
2017-12-22T19:32:47.758Z,4.50
2017-12-22T19:35:16.117Z,4.50
2017-12-22T19:37:44.466Z,4.50
2017-12-22T19:40:12.085Z,4.50
2017-12-22T19:42:39.662Z,4.50
2017-12-22T19:45:07.242Z,4.50
2017-12-22T19:47:34.866Z,4.40
2017-12-22T19:50:02.442Z,4.40
2017-12-22T19:52:30.018Z,4.40
2017-12-22T19:54:57.641Z,4.40
2017-12-22T19:57:25.217Z,4.40
2017-12-22T19:59:52.794Z,4.40
2017-12-22T20:02:20.504Z,4.40
2017-12-22T20:04:48.091Z,4.40
2017-12-22T20:07:15.673Z,4.40
2017-12-22T20:09:43.301Z,4.40
2017-12-22T20:12:10.883Z,4.40
2017-12-22T20:14:38.470Z,4.40
2017-12-22T20:17:06.117Z,4.40
2017-12-22T20:19:33.677Z,4.40
2017-12-22T20:22:01.318Z,4.40
2017-12-22T20:24:28.898Z,4.30
2017-12-22T20:26:56.492Z,4.40
2017-12-22T20:29:24.866Z,4.40
2017-12-22T20:31:53.213Z,4.40
2017-12-22T20:34:20.851Z,4.40
2017-12-22T20:36:48.430Z,4.40
2017-12-22T20:39:16.267Z,4.40
2017-12-22T20:41:43.878Z,4.40
2017-12-22T20:44:12.218Z,4.40
2017-12-22T20:46:39.797Z,4.40
2017-12-22T20:49:07.557Z,4.40
2017-12-22T20:51:35.137Z,4.50
2017-12-22T20:54:03.481Z,4.50
2017-12-22T20:56:31.129Z,4.50
2017-12-22T20:58:58.704Z,4.40
2017-12-22T21:01:26.290Z,4.40
2017-12-22T21:03:54.660Z,4.40
2017-12-22T21:06:23.053Z,4.40
2017-12-22T21:08:51.414Z,4.40
2017-12-22T21:11:19.761Z,4.40
2017-12-22T21:13:47.562Z,4.40
2017-12-22T21:16:15.908Z,4.40
2017-12-22T21:18:43.482Z,4.40
2017-12-22T21:21:11.082Z,4.40
2017-12-22T21:23:38.710Z,4.40
2017-12-22T21:26:07.058Z,4.50
2017-12-22T21:28:34.646Z,4.40
2017-12-22T21:31:03.058Z,4.40
2017-12-22T21:33:30.740Z,4.40
2017-12-22T21:35:58.327Z,4.40
2017-12-22T21:38:25.914Z,4.40
2017-12-22T21:40:54.287Z,4.40
2017-12-22T21:43:22.680Z,4.40
2017-12-22T21:45:50.253Z,4.40
2017-12-22T21:48:17.838Z,4.50
2017-12-22T21:50:45.485Z,4.40
2017-12-22T21:53:13.058Z,4.40
2017-12-22T21:55:40.642Z,4.40
2017-12-22T21:58:08.240Z,4.40
2017-12-22T22:00:35.821Z,4.50
2017-12-22T22:03:03.426Z,4.40
2017-12-22T22:05:31.798Z,4.40
2017-12-22T22:07:59.369Z,4.40
2017-12-22T22:10:27.761Z,4.30
2017-12-22T22:12:55.358Z,4.30
2017-12-22T22:15:22.937Z,4.30
2017-12-22T22:17:50.554Z,4.20
2017-12-22T22:20:18.193Z,4.20
2017-12-22T22:22:46.537Z,4.20
2017-12-22T22:25:14.119Z,4.20
2017-12-22T22:27:42.489Z,4.10
2017-12-22T22:30:10.837Z,4.10
2017-12-22T22:32:38.433Z,4.10
2017-12-22T22:35:06.810Z,4.10
2017-12-22T22:37:35.161Z,4.10
2017-12-22T22:40:02.799Z,4.10
2017-12-22T22:42:30.381Z,4.10
2017-12-22T22:44:57.961Z,4.10
2017-12-22T22:47:26.350Z,4.10
2017-12-22T22:49:54.737Z,4.10
2017-12-22T22:52:22.334Z,4.10
2017-12-22T22:54:49.945Z,4.10
2017-12-22T22:57:18.293Z,4.10
2017-12-22T22:59:45.869Z,4.10
2017-12-22T23:02:14.233Z,4.20
2017-12-22T23:04:42.593Z,4.20
2017-12-22T23:07:10.166Z,4.20
2017-12-22T23:09:38.562Z,4.30
2017-12-22T23:12:06.909Z,4.40
2017-12-22T23:14:34.492Z,4.30
2017-12-22T23:17:02.886Z,4.30
2017-12-22T23:19:30.466Z,4.30
2017-12-22T23:21:58.041Z,4.30
2017-12-22T23:24:25.655Z,4.30
2017-12-22T23:26:54.020Z,4.30
2017-12-22T23:29:21.598Z,4.30
